Chevery, Canada
Current Conditions -  °F | °C
As of 12:00 AM on Friday 28 Nov 2014 (Local Time) from CWDH Reporting Station
Clear Clear  
Wind Chill: 15°   Ceiling: Unl
Heat Index: 26°   Visibility: 9mi
Dew Point: 19°   Wind: 10mph
Humidity: 76%   Direction: 20°NNE
Pressure: 29.64"   Gusts: 17mph
Location:  50.47°N, 59.6°W
Report Text: CWDH 280400Z AUTO 02009G15KT 9SM NSC M04/M07 A2964 RMK SLP040 PK WND 03026/// T10361072 70028 WSI/SWOB
Loading
Personal Weather Stations






























Interactive Weather Map New forecast layout! Learn more

10-Day Weather Forecast

Advertisements
Track Severe Weather on mobile